Ust'- Barguzin, Russia
Current Conditions -  °F | °C
As of 1:00 PM on Sunday 26 Oct 2014 (Local Time) from UIUU Reporting Station
Scattered Clouds Scattered Clouds  
Wind Chill: 13°   Ceiling: Unl
Heat Index: 23°   Visibility: 6mi
Dew Point:   Wind: 9mph
Humidity: 54%   Direction: 120°ESE
Pressure: 30.39"   Gusts: NA
Location:  53.45°N, 108.98°E
Report Text: UIUU 260500Z 12004MPS 9999 SCT100 M05/M13 Q1029 NOSIG RMKQFE727/0969 26CLRD60
Loading
Personal Weather Stations






























Interactive Weather Map
Tropical Storm Tracking
New forecast layout! Learn more

10-Day Weather Forecast

Advertisements
Track Severe Weather on mobile